Time;durP1;ratioP1;P1;durP2;ratioP2;P2;SDS_P1;SDS_P2;PMS_P1;PMS_P2;Temp;Humidity;BMP_temperature;BMP_pressure;BME280_temperature;BME280_humidity;BME280_pressure;Samples;Min_cycle;Max_cycle;Signal;HPM_P1;HPM_P2
2022/11/25 00:01:26;;;;;;;12.20;6.43;;;;;;;3.76;nan;98028.00;5034267;28;20251;-70
2022/11/25 00:03:55;;;;;;;10.73;6.07;;;;;;;3.70;nan;98021.63;5034227;28;20206;-71
2022/11/25 00:06:22;;;;;;;10.20;5.83;;;;;;;3.62;nan;98026.16;5034247;28;20205;-70
2022/11/25 00:08:51;;;;;;;11.77;6.47;;;;;;;3.67;nan;98024.59;5034216;28;20206;-71
2022/11/25 00:11:18;;;;;;;13.83;6.57;;;;;;;3.66;nan;98027.44;5034072;28;20229;-71
2022/11/25 00:13:47;;;;;;;11.93;5.97;;;;;;;3.68;nan;98021.00;5033816;28;20543;-70
2022/11/25 00:16:16;;;;;;;12.73;6.67;;;;;;;3.72;nan;98018.81;5033704;28;20208;-70
2022/11/25 00:18:47;;;;;;;13.93;6.50;;;;;;;3.72;nan;98008.31;5034091;28;20205;-70
2022/11/25 00:21:16;;;;;;;11.97;6.30;;;;;;;3.68;nan;98010.47;5033895;28;20231;-70
2022/11/25 00:23:43;;;;;;;14.83;6.53;;;;;;;3.65;nan;98008.19;5033648;28;20552;-70
2022/11/25 00:26:14;;;;;;;12.97;6.03;;;;;;;3.64;nan;98013.63;5033912;28;20232;-70
2022/11/25 00:28:43;;;;;;;14.97;6.33;;;;;;;3.63;nan;98017.25;5033639;28;20190;-70
2022/11/25 00:31:18;;;;;;;9.80;5.80;;;;;;;3.63;nan;98014.63;5033516;28;20232;-70
2022/11/25 00:33:45;;;;;;;12.47;5.97;;;;;;;3.59;nan;98016.81;5033895;28;20297;-70
2022/11/25 00:36:33;;;;;;;10.93;6.10;;;;;;;3.66;nan;98027.44;5033744;28;20209;-70
2022/11/25 00:39:01;;;;;;;12.60;6.67;;;;;;;3.58;nan;98019.59;5034236;28;20213;-70
2022/11/25 00:46:59;;;;;;;12.00;6.60;;;;;;;3.55;nan;98012.06;5033779;28;20208;-70
2022/11/25 00:49:25;;;;;;;9.90;5.73;;;;;;;3.55;nan;98009.44;5033431;28;20216;-70
2022/11/25 00:51:52;;;;;;;14.83;6.20;;;;;;;3.55;nan;98015.50;5033347;28;20234;-71
2022/11/25 00:54:19;;;;;;;10.93;6.30;;;;;;;3.59;nan;98021.22;5033549;28;20212;-70
2022/11/25 00:56:45;;;;;;;10.70;5.93;;;;;;;3.61;nan;98020.06;5033218;28;20669;-70
2022/11/25 00:59:11;;;;;;;9.87;6.50;;;;;;;3.62;nan;98018.25;5033468;28;20209;-70
2022/11/25 01:01:38;;;;;;;9.83;5.80;;;;;;;3.69;nan;98016.53;5033415;28;20230;-70
2022/11/25 01:04:05;;;;;;;12.97;6.13;;;;;;;3.66;nan;98016.91;5033383;28;20206;-70
2022/11/25 01:06:32;;;;;;;12.83;6.07;;;;;;;3.67;nan;98027.22;5033424;28;20573;-70
2022/11/25 01:08:58;;;;;;;10.50;6.53;;;;;;;3.70;nan;98024.25;5033665;28;20206;-70
2022/11/25 01:11:25;;;;;;;12.00;5.57;;;;;;;3.67;nan;98024.59;5035736;28;20252;-70
2022/11/25 01:13:53;;;;;;;13.13;6.20;;;;;;;3.70;nan;98033.97;5037510;28;20542;-71
2022/11/25 01:16:21;;;;;;;9.23;5.93;;;;;;;3.74;nan;98030.81;5037470;28;20229;-70
2022/11/25 01:18:49;;;;;;;12.33;5.97;;;;;;;3.76;nan;98025.38;5037122;28;20209;-70
2022/11/25 01:21:30;;;;;;;12.10;6.40;;;;;;;3.74;nan;98029.97;5037304;28;20225;-70
2022/11/25 01:23:59;;;;;;;9.00;5.43;;;;;;;3.76;nan;98033.25;5037312;28;20200;-71
2022/11/25 01:26:25;;;;;;;10.83;5.80;;;;;;;3.68;nan;98028.06;5037206;28;20276;-70
2022/11/25 01:28:57;;;;;;;12.03;6.10;;;;;;;3.70;nan;98018.19;5036937;28;20665;-70
2022/11/25 01:31:26;;;;;;;14.53;6.60;;;;;;;3.84;nan;98009.53;5036754;28;20712;-70
2022/11/25 01:33:56;;;;;;;10.93;6.50;;;;;;;3.78;nan;98020.75;5037142;28;20202;-70
2022/11/25 01:36:22;;;;;;;9.90;6.33;;;;;;;3.75;nan;98021.13;5037073;28;20198;-70
2022/11/25 01:38:54;;;;;;;11.07;6.83;;;;;;;3.81;nan;98030.91;5036703;28;20220;-70
2022/11/25 01:41:22;;;;;;;12.20;5.90;;;;;;;3.79;nan;98025.03;5036540;28;20589;-70
2022/11/25 01:44:09;;;;;;;11.33;7.33;;;;;;;3.81;nan;98025.66;5036866;28;20692;-70
2022/11/25 01:46:44;;;;;;;11.23;6.33;;;;;;;3.74;nan;98028.16;5035993;28;20222;-70
2022/11/25 01:49:17;;;;;;;10.43;6.10;;;;;;;3.78;nan;98015.47;5036285;28;20201;-70
2022/11/25 01:51:51;;;;;;;11.37;6.47;;;;;;;3.89;nan;98020.34;5036530;28;20234;-70
2022/11/25 01:54:22;;;;;;;12.00;6.57;;;;;;;3.86;nan;98012.78;5036792;28;20194;-70
2022/11/25 01:56:53;;;;;;;13.53;7.13;;;;;;;3.77;nan;98013.84;5036730;28;20190;-70
2022/11/25 01:59:20;;;;;;;13.57;7.03;;;;;;;3.80;nan;98022.19;5036945;28;20204;-70
2022/11/25 02:01:47;;;;;;;13.27;6.63;;;;;;;3.83;nan;98015.75;5036804;28;20230;-70
2022/11/25 02:04:17;;;;;;;11.53;6.97;;;;;;;3.80;nan;98022.19;5036493;28;20613;-70
2022/11/25 02:06:52;;;;;;;13.47;6.87;;;;;;;3.87;nan;98017.03;5036215;28;20563;-70
2022/11/25 02:09:21;;;;;;;11.57;7.17;;;;;;;3.80;nan;98021.41;5036402;28;20196;-70
2022/11/25 02:11:47;;;;;;;13.30;6.60;;;;;;;3.83;nan;98023.66;5036068;28;20582;-70
2022/11/25 02:14:17;;;;;;;9.73;5.90;;;;;;;3.84;nan;98034.00;5036921;28;20205;-70
2022/11/25 02:16:44;;;;;;;12.33;7.10;;;;;;;3.74;nan;98032.59;5036030;28;20609;-70
2022/11/25 02:19:24;;;;;;;13.33;6.83;;;;;;;3.68;nan;98033.31;5036261;28;20201;-70
2022/11/25 02:21:56;;;;;;;12.67;7.10;;;;;;;3.67;nan;98024.59;5036365;28;20230;-70
2022/11/25 02:24:31;;;;;;;12.63;6.40;;;;;;;3.83;nan;98028.91;5036175;28;20194;-70
2022/11/25 02:26:58;;;;;;;10.17;6.43;;;;;;;3.71;nan;98038.22;5037029;28;20208;-70
2022/11/25 02:29:26;;;;;;;12.27;6.80;;;;;;;3.67;nan;98031.69;5036065;28;20595;-70
2022/11/25 02:31:52;;;;;;;9.83;6.00;;;;;;;3.74;nan;98029.97;5035987;28;20226;-70
2022/11/25 02:34:18;;;;;;;11.17;6.30;;;;;;;3.78;nan;98029.47;5036544;28;20214;-70
2022/11/25 02:36:45;;;;;;;8.63;6.67;;;;;;;3.75;nan;98016.66;5035673;28;20202;-70
2022/11/25 02:39:12;;;;;;;9.73;6.00;;;;;;;3.74;nan;98022.09;5035924;28;20208;-70
2022/11/25 02:41:43;;;;;;;15.30;6.60;;;;;;;3.67;nan;98029.84;5035819;28;20230;-70
2022/11/25 02:44:10;;;;;;;11.33;6.63;;;;;;;3.65;nan;98021.34;5035915;28;20200;-71
2022/11/25 02:46:36;;;;;;;11.67;6.10;;;;;;;3.74;nan;98014.19;5035767;28;20308;-70
2022/11/25 02:49:03;;;;;;;8.70;5.80;;;;;;;3.75;nan;98021.13;5035426;28;20692;-70
2022/11/25 02:51:32;;;;;;;11.80;6.47;;;;;;;3.77;nan;98019.94;5035391;28;20348;-70
2022/11/25 02:53:58;;;;;;;11.90;6.07;;;;;;;3.71;nan;98019.81;5035327;28;20673;-70
2022/11/25 02:56:28;;;;;;;10.13;5.93;;;;;;;3.68;nan;98017.53;5035650;28;20202;-70
2022/11/25 02:58:54;;;;;;;8.63;5.60;;;;;;;3.68;nan;98012.28;5035532;28;20212;-70
2022/11/25 03:01:21;;;;;;;10.73;5.93;;;;;;;3.68;nan;98023.63;5035374;28;20588;-70
2022/11/25 03:03:48;;;;;;;10.83;6.60;;;;;;;3.67;nan;98013.28;5035162;28;20220;-70
2022/11/25 03:06:14;;;;;;;9.27;6.03;;;;;;;3.64;nan;98013.63;5035004;28;20772;-70
2022/11/25 03:08:40;;;;;;;10.33;5.77;;;;;;;3.63;nan;98017.25;5035354;28;20237;-70
2022/11/25 03:11:07;;;;;;;11.70;6.63;;;;;;;3.54;nan;98008.63;5034942;28;20713;-70
2022/11/25 03:13:34;;;;;;;12.47;6.10;;;;;;;3.62;nan;98008.53;5034987;28;20300;-70
2022/11/25 03:16:00;;;;;;;11.63;6.07;;;;;;;3.50;nan;98006.50;5035254;28;20202;-70
2022/11/25 03:18:26;;;;;;;8.87;5.93;;;;;;;3.49;nan;98010.13;5035122;28;20213;-70
2022/11/25 03:20:56;;;;;;;13.10;6.47;;;;;;;3.45;nan;98011.47;5034791;28;20244;-70
2022/11/25 03:23:23;;;;;;;11.67;5.67;;;;;;;3.44;nan;98008.03;5035066;28;20568;-71
2022/11/25 03:25:49;;;;;;;10.50;6.10;;;;;;;3.43;nan;98006.41;5034990;28;20226;-70
2022/11/25 03:28:16;;;;;;;10.30;6.40;;;;;;;3.45;nan;97995.72;5035014;28;20208;-70
2022/11/25 03:30:43;;;;;;;13.23;6.37;;;;;;;3.38;nan;97997.38;5034787;28;20229;-70
2022/11/25 03:33:09;;;;;;;9.60;6.00;;;;;;;3.36;nan;97999.38;5034307;28;20561;-70
2022/11/25 03:35:36;;;;;;;12.47;6.57;;;;;;;3.39;nan;97999.06;5034803;28;20202;-70
2022/11/25 03:38:02;;;;;;;11.70;6.03;;;;;;;3.38;nan;98008.72;5034849;28;20205;-71
2022/11/25 03:40:28;;;;;;;9.80;6.03;;;;;;;3.36;nan;97996.75;5034355;28;20240;-70
2022/11/25 03:42:55;;;;;;;9.77;5.93;;;;;;;3.33;nan;97997.94;5034403;28;20687;-70
2022/11/25 03:45:21;;;;;;;10.70;6.70;;;;;;;3.32;nan;98000.72;5034176;28;20558;-70
2022/11/25 03:47:47;;;;;;;13.87;6.03;;;;;;;3.29;nan;97996.66;5034611;28;20232;-70
2022/11/25 03:50:15;;;;;;;8.07;5.77;;;;;;;3.25;nan;97992.72;5034456;28;20212;-70
2022/11/25 03:52:42;;;;;;;12.53;5.77;;;;;;;3.16;nan;97992.97;5034441;28;20206;-70
2022/11/25 03:55:11;;;;;;;12.50;6.20;;;;;;;3.21;nan;97985.38;5034300;28;20206;-70
2022/11/25 03:57:37;;;;;;;8.60;6.20;;;;;;;3.19;nan;97987.34;5035038;28;20789;-70
2022/11/25 04:00:05;;;;;;;10.07;6.37;;;;;;;3.14;nan;97989.69;5033905;28;20661;-70
2022/11/25 04:02:31;;;;;;;10.40;6.43;;;;;;;3.06;nan;97992.34;5034220;28;20230;-70
2022/11/25 04:04:57;;;;;;;11.93;6.27;;;;;;;3.10;nan;97998.91;5034089;28;20549;-70
2022/11/25 04:07:23;;;;;;;10.23;6.43;;;;;;;3.17;nan;97989.34;5033772;28;20685;-70
2022/11/25 04:09:50;;;;;;;10.97;6.57;;;;;;;3.18;nan;97993.59;5033807;28;20669;-70
2022/11/25 04:15:00;;;;;;;9.00;5.60;;;;;;;3.17;nan;97991.97;5034159;28;20185;-70
2022/11/25 04:17:26;;;;;;;11.03;6.37;;;;;;;3.16;nan;97988.53;5033681;28;20216;-70
2022/11/25 04:19:52;;;;;;;9.63;5.87;;;;;;;3.19;nan;97988.19;5033640;28;20217;-70
2022/11/25 04:22:19;;;;;;;11.17;6.33;;;;;;;3.17;nan;97990.16;5033503;28;20226;-70
2022/11/25 04:24:45;;;;;;;11.67;6.40;;;;;;;3.22;nan;97993.09;5033747;28;20217;-70
2022/11/25 04:27:11;;;;;;;11.10;6.67;;;;;;;3.23;nan;97993.91;5033991;28;20237;-70
2022/11/25 04:29:38;;;;;;;10.83;6.57;;;;;;;3.26;nan;97990.94;5033760;28;20209;-70
2022/11/25 04:32:05;;;;;;;13.67;5.80;;;;;;;3.19;nan;97982.09;5033545;28;20221;-70
2022/11/25 04:34:31;;;;;;;10.43;5.83;;;;;;;3.23;nan;97983.38;5033639;28;20216;-70
2022/11/25 04:36:57;;;;;;;12.13;6.50;;;;;;;3.25;nan;97991.94;5033598;28;20210;-70
2022/11/25 04:39:24;;;;;;;10.00;5.80;;;;;;;3.23;nan;97980.75;5033627;28;20297;-70
2022/11/25 04:42:30;;;;;;;8.70;6.10;;;;;;;3.28;nan;97983.69;5033433;28;20232;-70
2022/11/25 04:44:36;;;;;;;10.53;6.23;;;;;;;3.31;nan;97985.97;5032504;28;20206;-71
2022/11/25 04:47:03;;;;;;;10.93;5.57;;;;;;;3.25;nan;97981.41;5032792;28;20693;-70
2022/11/25 04:49:29;;;;;;;8.73;5.53;;;;;;;3.37;nan;97986.09;5033495;28;20213;-70
2022/11/25 04:51:55;;;;;;;10.13;5.30;;;;;;;3.36;nan;97975.75;5033247;28;20240;-70
2022/11/25 04:54:22;;;;;;;10.73;5.67;;;;;;;3.31;nan;97975.47;5033556;28;20212;-70
2022/11/25 04:56:48;;;;;;;12.33;6.10;;;;;;;3.38;nan;97986.88;5033104;28;20228;-70
2022/11/25 05:01:58;;;;;;;8.93;5.13;;;;;;;3.27;nan;97982.06;5033193;28;20232;-70
2022/11/25 05:04:25;;;;;;;9.33;5.83;;;;;;;3.28;nan;97991.56;5033998;28;20208;-70
2022/11/25 05:06:51;;;;;;;10.47;5.37;;;;;;;3.18;nan;97993.59;5033156;28;20258;-70
2022/11/25 05:09:18;;;;;;;10.33;5.83;;;;;;;3.21;nan;97996.69;5033417;28;20216;-70
2022/11/25 05:11:44;;;;;;;11.27;5.63;;;;;;;3.02;nan;97999.78;5033343;28;20230;-70
2022/11/25 05:14:11;;;;;;;7.70;5.67;;;;;;;3.01;nan;97999.94;5033269;28;20205;-70
2022/11/25 05:16:37;;;;;;;7.83;5.53;;;;;;;3.11;nan;97995.31;5033390;28;20209;-70
2022/11/25 05:19:03;;;;;;;8.87;5.30;;;;;;;3.07;nan;97996.63;5032741;28;20213;-70
2022/11/25 05:21:30;;;;;;;10.90;5.07;;;;;;;3.08;nan;97987.75;5032614;28;20236;-70
2022/11/25 05:23:56;;;;;;;9.37;4.97;;;;;;;3.05;nan;97986.31;5033027;28;20216;-70
2022/11/25 05:26:22;;;;;;;8.60;5.10;;;;;;;3.06;nan;97985.31;5032913;28;20222;-70
2022/11/25 05:28:49;;;;;;;10.03;5.17;;;;;;;3.16;nan;97985.91;5032503;28;20584;-70
2022/11/25 05:31:15;;;;;;;8.63;5.53;;;;;;;3.16;nan;97996.41;5032945;28;20229;-70
2022/11/25 05:33:41;;;;;;;8.47;5.30;;;;;;;3.17;nan;97995.41;5033023;28;20206;-70
2022/11/25 05:36:08;;;;;;;9.10;5.67;;;;;;;3.19;nan;97992.59;5033855;28;20212;-70
2022/11/25 05:38:34;;;;;;;11.60;6.13;;;;;;;3.18;nan;97990.97;5032586;28;20210;-70
2022/11/25 05:41:03;;;;;;;7.70;5.53;;;;;;;3.20;nan;97994.25;5032671;28;20255;-70
2022/11/25 05:43:29;;;;;;;7.67;5.80;;;;;;;3.23;nan;98001.78;5032564;28;20572;-70
2022/11/25 05:45:56;;;;;;;11.27;5.93;;;;;;;3.18;nan;98002.31;5032583;28;20229;-70
2022/11/25 05:48:23;;;;;;;10.57;5.83;;;;;;;3.18;nan;98004.13;5032384;28;20206;-70
2022/11/25 05:50:49;;;;;;;13.03;6.00;;;;;;;3.18;nan;98009.38;5032329;28;20238;-70
2022/11/25 05:53:16;;;;;;;8.03;5.70;;;;;;;3.12;nan;98023.19;5032422;28;20213;-70
2022/11/25 05:55:43;;;;;;;12.63;6.27;;;;;;;3.10;nan;98018.13;5032410;28;20579;-70
2022/11/25 05:58:09;;;;;;;9.97;5.77;;;;;;;3.02;nan;98033.09;5035560;28;20206;-71
2022/11/25 06:00:36;;;;;;;11.83;6.10;;;;;;;3.02;nan;98020.78;5036043;28;20225;-70
2022/11/25 06:03:02;;;;;;;11.33;6.03;;;;;;;3.04;nan;98031.13;5035947;28;20554;-70
2022/11/25 06:05:28;;;;;;;12.93;5.57;;;;;;;2.95;nan;98032.16;5035589;28;20209;-70
2022/11/25 06:07:55;;;;;;;11.20;6.17;;;;;;;3.06;nan;98027.31;5036129;28;20206;-70
2022/11/25 06:10:21;;;;;;;9.73;5.60;;;;;;;3.05;nan;98038.81;5035961;28;20224;-70
2022/11/25 06:12:47;;;;;;;10.17;6.40;;;;;;;3.03;nan;98040.00;5036045;28;20209;-70
2022/11/25 06:15:14;;;;;;;10.43;5.97;;;;;;;3.09;nan;98041.91;5035548;28;20209;-70
2022/11/25 06:17:40;;;;;;;10.03;6.13;;;;;;;3.00;nan;98035.06;5035385;28;20569;-70
2022/11/25 06:20:08;;;;;;;10.70;6.43;;;;;;;2.94;nan;98033.16;5036037;28;20206;-70
2022/11/25 06:22:34;;;;;;;7.83;5.97;;;;;;;2.96;nan;98034.59;5035760;28;20206;-70
2022/11/25 06:25:01;;;;;;;12.10;6.50;;;;;;;2.93;nan;98040.19;5035650;28;20206;-70
2022/11/25 06:27:27;;;;;;;11.87;6.53;;;;;;;2.94;nan;98041.81;5035961;28;20263;-70
2022/11/25 06:29:54;;;;;;;11.57;6.50;;;;;;;2.94;nan;98041.81;5035667;28;20217;-70
2022/11/25 06:32:20;;;;;;;10.23;7.10;;;;;;;2.95;nan;98050.53;5035544;28;20236;-70
2022/11/25 06:34:46;;;;;;;11.60;6.80;;;;;;;2.96;nan;98050.38;5035015;28;20337;-70
2022/11/25 06:37:13;;;;;;;10.90;6.40;;;;;;;2.93;nan;98049.91;5035318;28;20198;-70
2022/11/25 06:39:39;;;;;;;11.43;6.67;;;;;;;2.90;nan;98056.31;5035378;28;20301;-70
2022/11/25 06:42:06;;;;;;;11.60;6.50;;;;;;;2.91;nan;98051.84;5035161;28;20222;-70
2022/11/25 06:44:32;;;;;;;11.53;5.97;;;;;;;2.88;nan;98052.19;5035091;28;20206;-70
2022/11/25 06:46:58;;;;;;;11.87;6.03;;;;;;;2.84;nan;98067.47;5035245;28;20344;-70
2022/11/25 06:49:25;;;;;;;11.23;6.27;;;;;;;2.81;nan;98065.22;5035460;28;20206;-70
2022/11/25 06:51:51;;;;;;;12.83;6.80;;;;;;;2.84;nan;98066.66;5035304;28;20655;-70
2022/11/25 06:54:17;;;;;;;11.47;5.87;;;;;;;2.84;nan;98056.97;5035347;28;20220;-70
2022/11/25 06:56:44;;;;;;;11.20;6.20;;;;;;;2.84;nan;98071.91;5034660;28;20206;-70
2022/11/25 06:59:10;;;;;;;12.03;6.73;;;;;;;2.86;nan;98064.69;5034936;28;20210;-70
2022/11/25 07:01:37;;;;;;;11.20;6.73;;;;;;;2.87;nan;98069.75;5034938;28;20744;-70
2022/11/25 07:04:05;;;;;;;11.83;6.83;;;;;;;2.93;nan;98073.53;5034974;28;20571;-70
2022/11/25 07:06:33;;;;;;;12.80;7.43;;;;;;;2.99;nan;98080.72;5034778;28;20217;-70
2022/11/25 07:08:59;;;;;;;16.90;6.80;;;;;;;3.16;nan;98087.53;5023614;28;20266;-73
2022/11/25 07:11:34;;;;;;;12.90;7.20;;;;;;;3.17;nan;98089.97;4995565;28;20223;-72
2022/11/25 07:14:07;;;;;;;11.33;7.23;;;;;;;3.26;nan;98082.88;4995981;28;20277;-72
2022/11/25 07:16:34;;;;;;;13.17;6.83;;;;;;;3.30;nan;98076.28;4995956;28;20274;-72
2022/11/25 07:19:02;;;;;;;10.90;6.23;;;;;;;3.36;nan;98083.47;4995151;28;20208;-72
2022/11/25 07:21:30;;;;;;;8.80;6.00;;;;;;;3.40;nan;98080.34;4995326;28;20250;-72
2022/11/25 07:23:59;;;;;;;11.53;6.30;;;;;;;3.39;nan;98081.31;4995333;28;20262;-71
2022/11/25 07:26:28;;;;;;;11.47;6.40;;;;;;;3.42;nan;98075.72;4995222;28;20227;-72
2022/11/25 07:28:58;;;;;;;9.37;5.67;;;;;;;3.57;nan;98081.06;4995255;28;20305;-72
2022/11/25 07:31:27;;;;;;;14.10;6.43;;;;;;;3.60;nan;98086.78;4994932;28;20805;-72
2022/11/25 07:33:56;;;;;;;9.30;5.50;;;;;;;3.59;nan;98085.13;4994787;28;20209;-72
2022/11/25 07:36:23;;;;;;;8.43;6.13;;;;;;;3.71;nan;98088.97;4995030;28;20593;-72
2022/11/25 07:38:50;;;;;;;9.63;5.40;;;;;;;3.61;nan;98088.41;4995237;28;20290;-72
2022/11/25 07:41:19;;;;;;;8.80;5.17;;;;;;;3.75;nan;98095.53;4994526;28;20227;-72
2022/11/25 07:43:47;;;;;;;9.10;5.63;;;;;;;3.83;nan;98097.28;4994259;28;20211;-72
2022/11/25 07:46:19;;;;;;;11.40;6.10;;;;;;;3.86;nan;98105.66;4994485;28;20654;-72
2022/11/25 07:48:46;;;;;;;9.73;5.37;;;;;;;3.92;nan;98106.75;4994819;28;20286;-72
2022/11/25 07:51:21;;;;;;;10.97;5.27;;;;;;;4.04;nan;98110.59;4994589;28;20239;-72
2022/11/25 07:53:49;;;;;;;10.33;5.33;;;;;;;4.07;nan;98112.88;4994961;28;20196;-72
2022/11/25 07:56:17;;;;;;;10.93;5.63;;;;;;;4.12;nan;98123.69;4995651;28;20213;-72
2022/11/25 07:58:44;;;;;;;10.90;5.60;;;;;;;4.14;nan;98119.06;4995033;28;20218;-72
2022/11/25 08:01:12;;;;;;;9.30;5.73;;;;;;;4.15;nan;98129.41;4995060;28;20235;-72
2022/11/25 08:03:41;;;;;;;10.17;5.73;;;;;;;4.23;nan;98126.72;4994588;28;20306;-72
2022/11/25 08:06:10;;;;;;;9.80;5.53;;;;;;;4.21;nan;98133.97;4994542;28;20227;-72
2022/11/25 08:08:37;;;;;;;9.10;5.47;;;;;;;4.07;nan;98129.47;4994342;28;20207;-72
2022/11/25 08:11:12;;;;;;;9.17;5.70;;;;;;;4.03;nan;98130.00;4994376;28;20226;-72
2022/11/25 08:13:39;;;;;;;9.93;5.30;;;;;;;4.19;nan;98137.75;4994500;28;20203;-72
2022/11/25 08:16:07;;;;;;;8.43;5.13;;;;;;;4.25;nan;98137.06;4994840;28;20203;-72
2022/11/25 08:18:33;;;;;;;9.53;5.73;;;;;;;4.60;nan;98144.31;4995474;28;20241;-72
2022/11/25 08:21:05;;;;;;;10.30;5.57;;;;;;;4.43;nan;98142.84;4994684;28;20231;-72
2022/11/25 08:23:34;;;;;;;11.50;5.93;;;;;;;4.31;nan;98139.81;4994778;28;20213;-72
2022/11/25 08:26:10;;;;;;;11.20;5.77;;;;;;;4.28;nan;98134.06;4994311;28;20230;-71
2022/11/25 08:28:37;;;;;;;11.83;6.17;;;;;;;4.33;nan;98121.19;4994321;28;20195;-72
2022/11/25 08:31:09;;;;;;;13.63;6.03;;;;;;;4.46;nan;98113.50;4994059;28;20239;-71
2022/11/25 08:33:36;;;;;;;9.80;5.53;;;;;;;4.33;nan;98108.88;4994351;28;20211;-72
2022/11/25 08:36:02;;;;;;;11.93;5.67;;;;;;;4.52;nan;98115.44;4994135;28;20214;-71
2022/11/25 08:38:29;;;;;;;13.37;6.50;;;;;;;4.53;nan;98117.88;4994186;28;20671;-71
2022/11/25 08:40:56;;;;;;;12.40;6.40;;;;;;;4.57;nan;98128.88;4994247;28;20227;-74
2022/11/25 08:43:23;;;;;;;8.80;6.20;;;;;;;4.68;nan;98131.06;4994282;28;20207;-71
2022/11/25 08:45:50;;;;;;;10.97;5.77;;;;;;;4.72;nan;98127.09;4994143;28;20213;-72
2022/11/25 08:48:19;;;;;;;10.83;5.70;;;;;;;4.69;nan;98127.44;4993871;28;20231;-71
2022/11/25 08:50:53;;;;;;;9.47;5.23;;;;;;;4.71;nan;98130.72;4993932;28;20234;-72
2022/11/25 08:53:21;;;;;;;9.83;5.70;;;;;;;4.75;nan;98132.00;4994088;28;20215;-72
2022/11/25 08:55:48;;;;;;;11.97;5.70;;;;;;;4.73;nan;98123.44;4993896;28;20211;-71
2022/11/25 08:58:14;;;;;;;8.97;5.43;;;;;;;4.69;nan;98132.69;4993443;28;20605;-71
2022/11/25 09:00:42;;;;;;;10.77;6.03;;;;;;;4.63;nan;98128.16;4993650;28;20237;-71
2022/11/25 09:03:10;;;;;;;11.53;6.30;;;;;;;4.69;nan;98124.81;4993760;28;20221;-72
2022/11/25 09:05:40;;;;;;;11.53;6.23;;;;;;;4.71;nan;98130.72;4993568;28;20211;-72
2022/11/25 09:08:08;;;;;;;16.10;6.47;;;;;;;4.78;nan;98136.88;4994601;28;20233;-71
2022/11/25 09:10:35;;;;;;;8.70;5.83;;;;;;;4.90;nan;98144.19;4993579;28;20223;-71
2022/11/25 09:13:01;;;;;;;9.90;5.57;;;;;;;5.06;nan;98146.63;4993458;28;20582;-71
2022/11/25 09:15:28;;;;;;;12.17;5.90;;;;;;;5.10;nan;98149.69;4993444;28;20580;-72
2022/11/25 09:18:02;;;;;;;9.07;5.10;;;;;;;5.27;nan;98156.41;4993722;28;20199;-72
2022/11/25 09:20:29;;;;;;;8.83;5.50;;;;;;;5.47;nan;98146.97;4993798;28;20242;-71
2022/11/25 09:22:55;;;;;;;11.73;5.17;;;;;;;5.61;nan;98152.19;4993376;28;20697;-71
2022/11/25 09:25:22;;;;;;;7.70;5.67;;;;;;;5.70;nan;98152.91;4994233;28;20211;-71
2022/11/25 09:27:49;;;;;;;8.00;4.87;;;;;;;5.82;nan;98157.53;4993596;28;20226;-72
2022/11/25 09:30:16;;;;;;;8.90;5.60;;;;;;;5.92;nan;98160.69;4993468;28;20203;-71
2022/11/25 09:32:43;;;;;;;10.07;5.23;;;;;;;5.96;nan;98158.47;4996398;28;20211;-72
2022/11/25 09:35:10;;;;;;;9.57;5.10;;;;;;;5.94;nan;98163.97;4997085;28;20624;-72
2022/11/25 09:37:36;;;;;;;10.43;5.63;;;;;;;6.02;nan;98161.19;4997328;28;20203;-71
2022/11/25 09:40:04;;;;;;;8.67;4.90;;;;;;;5.98;nan;98167.84;4997323;28;20683;-72
2022/11/25 09:48:48;;;;;;;10.93;5.67;;;;;;;6.20;nan;98155.50;4996763;28;20306;-72
2022/11/25 09:51:31;;;;;;;10.07;5.00;;;;;;;6.24;nan;98160.19;4997004;28;20234;-72
2022/11/25 09:54:09;;;;;;;9.83;5.63;;;;;;;6.34;nan;98163.31;4997437;28;20579;-72
2022/11/25 09:56:42;;;;;;;8.60;5.63;;;;;;;6.38;nan;98161.94;4997108;28;20190;-72
2022/11/25 09:59:31;;;;;;;8.90;5.30;;;;;;;6.50;nan;98167.53;4997103;28;20191;-72
2022/11/25 10:02:10;;;;;;;11.43;5.37;;;;;;;6.60;nan;98162.75;4996898;28;20231;-72
2022/11/25 10:04:43;;;;;;;10.13;5.30;;;;;;;6.69;nan;98161.63;4997185;28;20225;-71
2022/11/25 10:07:19;;;;;;;9.93;5.20;;;;;;;6.83;nan;98155.41;4996714;28;20250;-71
2022/11/25 10:09:46;;;;;;;7.50;5.13;;;;;;;6.90;nan;98161.53;4996669;28;20205;-71
2022/11/25 10:12:26;;;;;;;12.97;5.50;;;;;;;6.94;nan;98168.91;4996698;28;20223;-71
2022/11/25 10:15:00;;;;;;;8.77;5.47;;;;;;;6.96;nan;98171.34;4996635;28;20192;-71
2022/11/25 10:17:43;;;;;;;10.93;5.80;;;;;;;6.97;nan;98171.16;4996528;28;20203;-71
2022/11/25 10:20:19;;;;;;;8.60;5.30;;;;;;;6.96;nan;98173.97;4996771;28;20199;-71
2022/11/25 10:22:50;;;;;;;10.07;5.57;;;;;;;6.98;nan;98164.88;4996695;28;20191;-71
2022/11/25 10:25:24;;;;;;;9.77;5.30;;;;;;;6.98;nan;98171.97;4996134;28;20280;-71
2022/11/25 10:28:04;;;;;;;7.43;5.23;;;;;;;7.05;nan;98168.34;4995919;28;20222;-72
2022/11/25 10:30:55;;;;;;;10.23;5.33;;;;;;;7.06;nan;98182.41;4996281;28;20361;-71
2022/11/25 10:33:27;;;;;;;7.73;4.83;;;;;;;7.16;nan;98180.22;4996442;28;20558;-72
2022/11/25 10:36:05;;;;;;;9.80;5.50;;;;;;;7.20;nan;98173.53;4995954;28;20286;-72
2022/11/25 10:38:41;;;;;;;7.63;5.10;;;;;;;7.24;nan;98177.44;4997886;28;20512;-73
2022/11/25 10:41:12;;;;;;;8.77;4.90;;;;;;;7.38;nan;98173.84;4997480;28;20709;-73
2022/11/25 10:43:42;;;;;;;7.33;4.87;;;;;;;7.39;nan;98184.22;4996898;28;20204;-73
2022/11/25 10:46:08;;;;;;;9.73;5.37;;;;;;;7.41;nan;98173.44;4996808;28;20206;-72
2022/11/25 10:49:11;;;;;;;10.63;5.07;;;;;;;7.41;nan;98176.06;4996649;28;20223;-72
2022/11/25 10:51:48;;;;;;;8.43;5.23;;;;;;;7.49;nan;98183.84;4995768;28;20345;-72
2022/11/25 10:54:19;;;;;;;8.43;5.13;;;;;;;7.47;nan;98175.31;4995928;28;20199;-72
2022/11/25 10:56:50;;;;;;;9.10;5.43;;;;;;;7.51;nan;98171.25;4996468;28;20199;-72
2022/11/25 10:59:36;;;;;;;9.40;5.07;;;;;;;7.54;nan;98168.22;4996466;28;20207;-73
2022/11/25 11:02:30;;;;;;;8.73;5.20;;;;;;;7.62;nan;98184.75;4996407;28;20262;-72
2022/11/25 11:05:08;;;;;;;9.23;5.77;;;;;;;7.63;nan;98183.72;4996132;28;20238;-73
2022/11/25 11:07:44;;;;;;;9.90;4.93;;;;;;;7.61;nan;98184.94;4997168;28;20714;-73
2022/11/25 11:10:26;;;;;;;8.50;5.13;;;;;;;7.53;nan;98193.03;4996348;28;20214;-71
2022/11/25 11:13:04;;;;;;;10.07;5.50;;;;;;;7.50;nan;98186.31;4995037;28;20547;-71
2022/11/25 11:15:46;;;;;;;9.03;5.00;;;;;;;7.51;nan;98185.28;4995011;28;20579;-71
2022/11/25 11:18:37;;;;;;;9.40;5.37;;;;;;;7.53;nan;98195.69;4995878;28;20191;-71
2022/11/25 11:21:21;;;;;;;11.17;5.63;;;;;;;7.53;nan;98204.44;4994881;28;20721;-71
2022/11/25 11:23:53;;;;;;;9.87;5.47;;;;;;;7.72;nan;98216.13;4994983;28;20278;-71
2022/11/25 11:26:34;;;;;;;12.30;6.67;;;;;;;7.85;nan;98219.66;4995690;28;20581;-71
2022/11/25 11:29:13;;;;;;;11.03;5.47;;;;;;;7.87;nan;98224.75;4994819;28;20191;-71
2022/11/25 11:31:45;;;;;;;10.40;5.23;;;;;;;7.86;nan;98225.75;4994443;28;20249;-71
2022/11/25 11:34:29;;;;;;;7.67;4.27;;;;;;;8.11;nan;98232.16;4994504;28;20195;-71
2022/11/25 11:37:16;;;;;;;9.17;5.23;;;;;;;8.00;nan;98228.25;4993675;28;20194;-71
2022/11/25 11:39:58;;;;;;;9.57;4.83;;;;;;;7.92;nan;98232.91;4994596;28;20195;-71
2022/11/25 11:42:39;;;;;;;9.03;4.80;;;;;;;7.96;nan;98242.91;4994856;28;20231;-71
2022/11/25 11:45:24;;;;;;;8.83;5.23;;;;;;;8.02;nan;98241.28;4994878;28;20278;-71
2022/11/25 11:48:21;;;;;;;8.67;3.83;;;;;;;8.14;nan;98245.00;4994848;28;20325;-71
2022/11/25 11:50:51;;;;;;;10.43;3.50;;;;;;;8.19;nan;98242.59;4994290;28;20606;-72
2022/11/25 11:53:23;;;;;;;13.23;3.27;;;;;;;8.17;nan;98244.59;4993821;28;20188;-72
2022/11/25 11:56:17;;;;;;;7.77;2.67;;;;;;;8.27;nan;98240.59;4994382;28;20207;-71
2022/11/25 11:58:56;;;;;;;7.80;2.30;;;;;;;8.20;nan;98252.16;4994707;28;20198;-72
2022/11/25 12:01:36;;;;;;;6.23;2.60;;;;;;;8.17;nan;98253.38;4994618;28;20227;-71
2022/11/25 12:04:22;;;;;;;4.90;2.47;;;;;;;8.11;nan;98245.41;4994667;28;20202;-71
2022/11/25 12:07:11;;;;;;;7.80;2.70;;;;;;;8.12;nan;98244.38;4994362;28;20192;-72
2022/11/25 12:09:46;;;;;;;8.43;2.60;;;;;;;8.05;nan;98238.25;4994638;28;20198;-72
2022/11/25 12:12:18;;;;;;;8.73;2.70;;;;;;;8.09;nan;98234.19;4994467;28;20707;-71
2022/11/25 12:14:57;;;;;;;6.53;2.50;;;;;;;8.06;nan;98237.25;4994263;28;20188;-72
2022/11/25 12:17:34;;;;;;;6.37;2.40;;;;;;;8.02;nan;98252.72;4994205;28;20187;-72
2022/11/25 12:20:45;;;;;;;8.70;2.73;;;;;;;8.01;nan;98245.75;4994266;28;20201;-72
2022/11/25 12:23:21;;;;;;;8.37;2.60;;;;;;;8.00;nan;98248.59;4987574;28;20580;-73
2022/11/25 12:25:56;;;;;;;6.07;2.27;;;;;;;8.03;nan;98250.88;4994405;28;20202;-73